Station Historical Data
Daily Summary for September 12, 2017 Units:  English    Metric   Both
« Previous Day
Next Day »
Daily Weekly Monthly Yearly Custom
  High: Low: Average:
Temperature: 62.4 °F 58.4 °F 60.6 °F
Dew Point: 60.7 °F 56.7 °F 58.8 °F
Humidity: 94% 92% 94%
Wind Speed: 21.0mph 0.0mph 11.3mph
Wind Gust: 38.0mph - -
Wind- - ESE
Pressure: 29.88 in 29.55 in -
Precipitation: 0.70 in    
Historical Graphs
 
 
Tabular Data for September 12, 2017
Time Temperature Dew Point Pressure Wind Wind Speed Wind Gust Humidity Rainfall Rate (Hourly) solar Conditions
00:00 61.2 °F 59.2 °F 29.56 in ENE 13.0 mph 24.0 mph 93% 0.00 in WeatherDisplay:10.37 W/m2 -RA
00:05 61.2 °F 59.2 °F 29.56 in ENE 13.0 mph 24.0 mph 93% 0.00 in WeatherDisplay:10.37 W/m2 -RA
00:10 61.3 °F 59.2 °F 29.56 in ENE 13.0 mph 24.0 mph 93% 0.00 in WeatherDisplay:10.37 W/m2 -RA
00:15 61.3 °F 59.3 °F 29.56 in ENE 12.0 mph 32.0 mph 93% 0.01 in WeatherDisplay:10.37 W/m2 -RA
00:20 61.3 °F 59.3 °F 29.56 in ENE 12.0 mph 32.0 mph 93% 0.00 in WeatherDisplay:10.37 W/m2 -RA
00:25 61.4 °F 59.4 °F 29.56 in ENE 16.0 mph 38.0 mph 93% 0.01 in WeatherDisplay:10.37 W/m2 -RA
00:30 61.4 °F 59.4 °F 29.56 in ENE 16.0 mph 38.0 mph 93% 0.01 in WeatherDisplay:10.37 W/m2 -RA
00:40 61.6 °F 59.9 °F 29.55 in ENE 16.0 mph 38.0 mph 94% 0.01 in WeatherDisplay:10.37 W/m2 -RA
00:45 61.6 °F 59.9 °F 29.55 in ENE 16.0 mph 38.0 mph 94% 0.02 in WeatherDisplay:10.37 W/m2 -RA
00:50 61.6 °F 59.9 °F 29.55 in ENE 16.0 mph 38.0 mph 94% 0.01 in WeatherDisplay:10.37 W/m2 -RA
00:55 61.7 °F 60.0 °F 29.55 in ENE 16.0 mph 38.0 mph 94% 0.01 in WeatherDisplay:10.37 W/m2 -RA
01:00 61.8 °F 60.1 °F 29.55 in ENE 16.0 mph 38.0 mph 94% 0.01 in WeatherDisplay:10.37 W/m2 -RA
01:10 61.8 °F 60.1 °F 29.55 in ENE 16.0 mph 38.0 mph 94% 0.00 in WeatherDisplay:10.37 W/m2 -RA
01:15 61.9 °F 60.2 °F 29.55 in ENE 9.0 mph 38.0 mph 94% 0.01 in WeatherDisplay:10.37 W/m2 -RA
01:20 62.0 °F 60.2 °F 29.55 in East 9.0 mph 20.0 mph 94% 0.00 in WeatherDisplay:10.37 W/m2 -RA
01:25 62.0 °F 60.3 °F 29.55 in East 9.0 mph 24.0 mph 94% 0.01 in WeatherDisplay:10.37 W/m2 -RA
01:30 62.1 °F 60.4 °F 29.55 in East 9.0 mph 24.0 mph 94% 0.02 in WeatherDisplay:10.37 W/m2 -RA
01:35 62.2 °F 60.5 °F 29.56 in East 9.0 mph 24.0 mph 94% 0.02 in WeatherDisplay:10.37 W/m2 -RA
01:40 62.3 °F 60.6 °F 29.56 in East 9.0 mph 24.0 mph 94% 0.02 in WeatherDisplay:10.37 W/m2 -RA
01:45 62.4 °F 60.7 °F 29.56 in East 16.0 mph 25.0 mph 94% 0.01 in WeatherDisplay:10.37 W/m2 +RA
01:50 62.4 °F 60.7 °F 29.56 in ESE 16.0 mph 25.0 mph 94% 0.01 in WeatherDisplay:10.37 W/m2 +RA
01:55 62.3 °F 60.6 °F 29.56 in East 16.0 mph 25.0 mph 94% 0.00 in WeatherDisplay:10.37 W/m2 OVC
02:00 62.3 °F 60.5 °F 29.56 in East 16.0 mph 25.0 mph 94% 0.00 in WeatherDisplay:10.37 W/m2 OVC
02:05 62.2 °F 60.5 °F 29.57 in East 16.0 mph 25.0 mph 94% 0.00 in WeatherDisplay:10.37 W/m2 OVC
02:10 62.1 °F 60.1 °F 29.57 in East 16.0 mph 25.0 mph 93% 0.00 in WeatherDisplay:10.37 W/m2 OVC
02:15 62.1 °F 60.0 °F 29.57 in East 12.0 mph 25.0 mph 93% 0.01 in WeatherDisplay:10.37 W/m2 RA
02:20 62.0 °F 60.0 °F 29.57 in East 12.0 mph 25.0 mph 93% 0.00 in WeatherDisplay:10.37 W/m2 OVC
02:25 62.0 °F 59.9 °F 29.57 in East 13.0 mph 25.0 mph 93% 0.00 in WeatherDisplay:10.37 W/m2 -RA
02:30 61.9 °F 59.9 °F 29.57 in East 13.0 mph 21.0 mph 93% 0.00 in WeatherDisplay:10.37 W/m2 -RA
02:40 61.9 °F 59.9 °F 29.57 in East 13.0 mph 21.0 mph 93% 0.00 in WeatherDisplay:10.37 W/m2 -RA
02:45 61.8 °F 59.8 °F 29.57 in East 17.0 mph 25.0 mph 93% 0.00 in WeatherDisplay:10.37 W/m2 -RA
02:50 61.7 °F 59.7 °F 29.57 in East 17.0 mph 25.0 mph 93% 0.00 in WeatherDisplay:10.37 W/m2 -RA
02:55 61.7 °F 59.7 °F 29.57 in East 17.0 mph 25.0 mph 93% 0.01 in WeatherDisplay:10.37 W/m2 -RA
03:00 61.6 °F 59.6 °F 29.57 in East 17.0 mph 25.0 mph 93% 0.00 in WeatherDisplay:10.37 W/m2 -RA
03:05 61.6 °F 59.6 °F 29.57 in East 17.0 mph 25.0 mph 93% 0.00 in WeatherDisplay:10.37 W/m2 -RA
03:10 61.5 °F 59.5 °F 29.57 in East 17.0 mph 25.0 mph 93% 0.00 in WeatherDisplay:10.37 W/m2 -RA
03:15 61.5 °F 59.5 °F 29.57 in East 14.0 mph 28.0 mph 93% 0.00 in WeatherDisplay:10.37 W/m2 OVC
03:25 61.5 °F 59.8 °F 29.57 in East 16.0 mph 28.0 mph 94% 0.01 in WeatherDisplay:10.37 W/m2 RA
03:35 61.5 °F 59.8 °F 29.57 in East 16.0 mph 24.0 mph 94% 0.00 in WeatherDisplay:10.37 W/m2 OVC
03:40 61.5 °F 59.8 °F 29.57 in East 16.0 mph 24.0 mph 94% 0.01 in WeatherDisplay:10.37 W/m2 RA
03:45 61.5 °F 59.8 °F 29.57 in East 16.0 mph 24.0 mph 94% 0.00 in WeatherDisplay:10.37 W/m2 OVC
03:50 61.5 °F 59.7 °F 29.57 in East 16.0 mph 24.0 mph 94% 0.00 in WeatherDisplay:10.37 W/m2 OVC
03:55 61.4 °F 59.7 °F 29.58 in East 17.0 mph 29.0 mph 94% 0.01 in WeatherDisplay:10.37 W/m2 -DZ
04:00 61.4 °F 59.7 °F 29.58 in East 17.0 mph 29.0 mph 94% 0.00 in WeatherDisplay:10.37 W/m2 -DZ
04:05 61.4 °F 59.7 °F 29.58 in East 17.0 mph 29.0 mph 94% 0.00 in WeatherDisplay:10.37 W/m2 -DZ
04:10 61.4 °F 59.6 °F 29.58 in East 17.0 mph 29.0 mph 94% 0.01 in WeatherDisplay:10.37 W/m2 -DZ
04:15 61.3 °F 59.6 °F 29.58 in East 14.0 mph 29.0 mph 94% 0.00 in WeatherDisplay:10.37 W/m2 -RA
04:20 61.1 °F 59.1 °F 29.58 in East 14.0 mph 28.0 mph 93% 0.00 in WeatherDisplay:10.37 W/m2 -RA
04:25 61.0 °F 59.0 °F 29.58 in East 18.0 mph 28.0 mph 93% 0.00 in WeatherDisplay:10.37 W/m2 OVC
04:30 60.9 °F 58.9 °F 29.58 in East 18.0 mph 26.0 mph 93% 0.00 in WeatherDisplay:10.37 W/m2 OVC
04:35 60.9 °F 59.2 °F 29.58 in East 18.0 mph 26.0 mph 94% 0.01 in WeatherDisplay:10.37 W/m2 OVC
04:40 60.9 °F 59.2 °F 29.58 in East 18.0 mph 26.0 mph 94% 0.00 in WeatherDisplay:10.37 W/m2 OVC
04:45 60.8 °F 59.1 °F 29.58 in ESE 21.0 mph 32.0 mph 94% 0.01 in WeatherDisplay:10.37 W/m2 -DZ
04:50 60.8 °F 59.1 °F 29.59 in ESE 21.0 mph 32.0 mph 94% 0.00 in WeatherDisplay:10.37 W/m2 -DZ
04:55 60.7 °F 59.0 °F 29.59 in ESE 21.0 mph 32.0 mph 94% 0.00 in WeatherDisplay:10.37 W/m2 -DZ
05:00 60.6 °F 58.6 °F 29.59 in ESE 21.0 mph 32.0 mph 93% 0.00 in WeatherDisplay:10.37 W/m2 -DZ
05:05 60.5 °F 58.5 °F 29.59 in ESE 21.0 mph 32.0 mph 93% 0.00 in WeatherDisplay:10.37 W/m2 -DZ
05:10 60.4 °F 58.4 °F 29.60 in ESE 21.0 mph 32.0 mph 93% 0.01 in WeatherDisplay:10.37 W/m2 -DZ
05:15 60.3 °F 58.3 °F 29.60 in ESE 21.0 mph 32.0 mph 93% 0.00 in WeatherDisplay:10.37 W/m2 -RA
05:20 60.0 °F 58.0 °F 29.60 in ESE 21.0 mph 28.0 mph 93% 0.01 in WeatherDisplay:10.37 W/m2 -RA
05:25 59.9 °F 57.9 °F 29.60 in ESE 21.0 mph 28.0 mph 93% 0.00 in WeatherDisplay:10.37 W/m2 -RA
05:30 59.7 °F 57.7 °F 29.61 in ESE 21.0 mph 28.0 mph 93% 0.01 in WeatherDisplay:10.37 W/m2 -RA
05:35 59.6 °F 57.6 °F 29.61 in ESE 21.0 mph 28.0 mph 93% 0.00 in WeatherDisplay:10.37 W/m2 -RA
05:40 59.4 °F 57.4 °F 29.61 in ESE 21.0 mph 28.0 mph 93% 0.00 in WeatherDisplay:10.37 W/m2 -RA
05:45 59.3 °F 57.3 °F 29.61 in ESE 21.0 mph 28.0 mph 93% 0.00 in WeatherDisplay:10.37 W/m2 -RA
05:50 59.2 °F 57.2 °F 29.62 in ESE 21.0 mph 28.0 mph 93% 0.00 in WeatherDisplay:10.37 W/m2 -RA
05:55 59.1 °F 57.1 °F 29.62 in ESE 21.0 mph 28.0 mph 93% 0.00 in WeatherDisplay:10.37 W/m2 -RA
06:00 59.1 °F 57.1 °F 29.62 in ESE 21.0 mph 28.0 mph 93% 0.01 in WeatherDisplay:10.37 W/m2 -RA
06:05 59.1 °F 57.1 °F 29.63 in ESE 21.0 mph 28.0 mph 93% 0.00 in WeatherDisplay:10.37 W/m2 -RA
06:10 59.1 °F 57.4 °F 29.63 in ESE 21.0 mph 28.0 mph 94% 0.00 in WeatherDisplay:10.37 W/m2 -RA
06:15 59.0 °F 57.0 °F 29.63 in ESE 14.0 mph 28.0 mph 93% 0.01 in WeatherDisplay:10.37 W/m2 -RA
06:20 58.9 °F 56.9 °F 29.64 in SE 14.0 mph 14.0 mph 93% 0.01 in WeatherDisplay:10.37 W/m2 -RA
06:25 58.9 °F 56.9 °F 29.64 in ESE 16.0 mph 30.0 mph 93% 0.00 in WeatherDisplay:10.37 W/m2 -RA
06:35 58.8 °F 57.1 °F 29.64 in ESE 16.0 mph 30.0 mph 94% 0.01 in WeatherDisplay:10.37 W/m2 -RA
06:40 58.7 °F 57.0 °F 29.64 in ESE 16.0 mph 30.0 mph 94% 0.00 in WeatherDisplay:10.37 W/m2 -RA
06:45 58.6 °F 56.9 °F 29.65 in ESE 16.0 mph 30.0 mph 94% 0.01 in WeatherDisplay:10.37 W/m2 -RA
06:50 58.6 °F 56.9 °F 29.65 in East 16.0 mph 24.0 mph 94% 0.00 in WeatherDisplay:10.37 W/m2 -RA
06:55 58.5 °F 56.8 °F 29.65 in East 15.0 mph 24.0 mph 94% 0.01 in WeatherDisplay:10.37 W/m2 -RA
07:00 58.5 °F 56.8 °F 29.65 in East 15.0 mph 15.0 mph 94% 0.01 in WeatherDisplay:10.37 W/m2 -RA
07:05 58.5 °F 56.8 °F 29.66 in East 15.0 mph 15.0 mph 94% 0.00 in WeatherDisplay:10.37 W/m2 -RA
07:10 58.4 °F 56.7 °F 29.66 in East 15.0 mph 15.0 mph 94% 0.01 in WeatherDisplay:10.37 W/m2 -RA
07:15 58.5 °F 56.8 °F 29.66 in East 13.0 mph 15.0 mph 94% 0.01 in WeatherDisplay:10.37 W/m2 -RA
07:20 58.4 °F 56.7 °F 29.66 in East 13.0 mph 13.0 mph 94% 0.00 in WeatherDisplay:10.37 W/m2 -RA
07:25 58.4 °F 56.7 °F 29.66 in East 13.0 mph 13.0 mph 94% 0.01 in WeatherDisplay:10.37 W/m2 -RA
07:30 58.4 °F 56.7 °F 29.67 in East 13.0 mph 13.0 mph 94% 0.00 in WeatherDisplay:10.37 W/m2 -RA
07:35 58.4 °F 56.7 °F 29.67 in East 13.0 mph 13.0 mph 94% 0.01 in WeatherDisplay:10.37 W/m2 -RA
07:40 58.5 °F 56.8 °F 29.67 in East 13.0 mph 13.0 mph 94% 0.01 in WeatherDisplay:10.37 W/m2 -RA
07:45 58.5 °F 56.8 °F 29.67 in East 13.0 mph 13.0 mph 94% 0.00 in WeatherDisplay:10.37 W/m2 -RA
07:50 58.5 °F 56.8 °F 29.68 in East 13.0 mph 13.0 mph 94% 0.01 in WeatherDisplay:10.37 W/m2 -RA
07:55 58.5 °F 56.8 °F 29.68 in East 13.0 mph 13.0 mph 94% 0.00 in WeatherDisplay:10.37 W/m2 -RA
08:00 58.6 °F 56.8 °F 29.68 in East 13.0 mph 13.0 mph 94% 0.01 in WeatherDisplay:10.37 W/m2 -RA
08:05 58.6 °F 56.9 °F 29.68 in East 13.0 mph 13.0 mph 94% 0.00 in WeatherDisplay:10.37 W/m2 -RA
08:10 58.6 °F 56.9 °F 29.68 in East 13.0 mph 13.0 mph 94% 0.00 in WeatherDisplay:10.37 W/m2 -RA
08:15 58.6 °F 56.9 °F 29.69 in ESE 15.0 mph 15.0 mph 94% 0.01 in WeatherDisplay:10.37 W/m2 -RA
08:25 58.6 °F 56.9 °F 29.69 in ESE 15.0 mph 15.0 mph 94% 0.00 in WeatherDisplay:10.37 W/m2 -RA
08:30 58.6 °F 56.9 °F 29.70 in ESE 15.0 mph 15.0 mph 94% 0.00 in WeatherDisplay:10.37 W/m2 -RA
08:40 58.7 °F 57.0 °F 29.70 in ESE 15.0 mph 15.0 mph 94% 0.00 in WeatherDisplay:10.37 W/m2 -RA
08:45 58.7 °F 57.0 °F 29.70 in ESE 13.0 mph 15.0 mph 94% 0.00 in WeatherDisplay:10.37 W/m2 -DZ
08:50 58.7 °F 57.0 °F 29.70 in ESE 13.0 mph 13.0 mph 94% 0.01 in WeatherDisplay:10.37 W/m2 -DZ
08:55 58.7 °F 57.0 °F 29.71 in ESE 13.0 mph 13.0 mph 94% 0.00 in WeatherDisplay:10.37 W/m2 -DZ
09:00 58.7 °F 57.0 °F 29.71 in ESE 13.0 mph 13.0 mph 94% 0.00 in WeatherDisplay:10.37 W/m2 -DZ
09:05 58.7 °F 57.0 °F 29.71 in ESE 13.0 mph 13.0 mph 94% 0.01 in WeatherDisplay:10.37 W/m2 -DZ
09:10 58.7 °F 57.0 °F 29.71 in ESE 13.0 mph 13.0 mph 94% 0.00 in WeatherDisplay:10.37 W/m2 -DZ
09:15 58.8 °F 57.0 °F 29.71 in ESE 15.0 mph 15.0 mph 94% 0.01 in WeatherDisplay:10.37 W/m2 -DZ
09:20 58.8 °F 57.1 °F 29.72 in ESE 15.0 mph 15.0 mph 94% 0.00 in WeatherDisplay:10.37 W/m2 -DZ
09:25 58.8 °F 57.1 °F 29.72 in ESE 15.0 mph 15.0 mph 94% 0.00 in WeatherDisplay:10.37 W/m2 -DZ
09:30 58.8 °F 57.1 °F 29.72 in ESE 15.0 mph 15.0 mph 94% 0.01 in WeatherDisplay:10.37 W/m2 -DZ
09:35 58.9 °F 57.2 °F 29.72 in ESE 15.0 mph 15.0 mph 94% 0.00 in WeatherDisplay:10.37 W/m2 -DZ
09:40 59.0 °F 57.3 °F 29.72 in ESE 15.0 mph 15.0 mph 94% 0.00 in WeatherDisplay:10.37 W/m2 -DZ
09:45 59.0 °F 57.3 °F 29.73 in ESE 13.0 mph 15.0 mph 94% 0.00 in WeatherDisplay:10.37 W/m2 -DZ
09:50 59.1 °F 57.4 °F 29.73 in ESE 13.0 mph 13.0 mph 94% 0.00 in WeatherDisplay:10.37 W/m2 -DZ
09:55 59.1 °F 57.4 °F 29.73 in ESE 13.0 mph 13.0 mph 94% 0.00 in WeatherDisplay:10.37 W/m2 -DZ
10:00 59.1 °F 57.4 °F 29.73 in ESE 13.0 mph 13.0 mph 94% 0.01 in WeatherDisplay:10.37 W/m2 -DZ
10:10 59.1 °F 57.4 °F 29.74 in ESE 13.0 mph 13.0 mph 94% 0.00 in WeatherDisplay:10.37 W/m2 -DZ
10:15 59.1 °F 57.4 °F 29.74 in ESE 12.0 mph 13.0 mph 94% 0.01 in WeatherDisplay:10.37 W/m2 -DZ
10:20 59.2 °F 57.5 °F 29.74 in ESE 12.0 mph 12.0 mph 94% 0.00 in WeatherDisplay:10.37 W/m2 -DZ
10:30 59.3 °F 57.6 °F 29.75 in ESE 12.0 mph 12.0 mph 94% 0.01 in WeatherDisplay:10.37 W/m2 -DZ
10:40 59.5 °F 57.8 °F 29.75 in ESE 12.0 mph 12.0 mph 94% 0.00 in WeatherDisplay:10.37 W/m2 -DZ
10:45 59.5 °F 57.8 °F 29.75 in ESE 13.0 mph 13.0 mph 94% 0.00 in WeatherDisplay:10.37 W/m2 -DZ
10:55 59.6 °F 57.9 °F 29.75 in ESE 13.0 mph 13.0 mph 94% 0.00 in WeatherDisplay:10.37 W/m2 -DZ
11:00 59.7 °F 58.0 °F 29.75 in ESE 13.0 mph 13.0 mph 94% 0.00 in WeatherDisplay:10.37 W/m2 -DZ
11:15 59.9 °F 58.2 °F 29.76 in SE 9.0 mph 13.0 mph 94% 0.01 in WeatherDisplay:10.37 W/m2 -DZ
11:20 59.9 °F 58.2 °F 29.76 in SE 9.0 mph 9.0 mph 94% 0.00 in WeatherDisplay:10.37 W/m2 -DZ
11:25 60.0 °F 58.3 °F 29.76 in SE 9.0 mph 9.0 mph 94% 0.00 in WeatherDisplay:10.37 W/m2 -DZ
11:30 59.9 °F 58.2 °F 29.76 in SE 9.0 mph 9.0 mph 94% 0.01 in WeatherDisplay:10.37 W/m2 -DZ
11:35 60.0 °F 58.2 °F 29.76 in SE 9.0 mph 9.0 mph 94% 0.01 in WeatherDisplay:10.37 W/m2 -DZ
11:40 60.1 °F 58.4 °F 29.77 in SE 9.0 mph 9.0 mph 94% 0.00 in WeatherDisplay:10.37 W/m2 -DZ
11:45 60.1 °F 58.4 °F 29.77 in SE 13.0 mph 13.0 mph 94% 0.00 in WeatherDisplay:10.37 W/m2 -RA
11:50 60.2 °F 58.4 °F 29.77 in SE 13.0 mph 13.0 mph 94% 0.00 in WeatherDisplay:10.37 W/m2 -RA
11:55 60.3 °F 58.6 °F 29.77 in SE 10.0 mph 13.0 mph 94% 0.00 in WeatherDisplay:10.37 W/m2 -DZ
12:00 60.3 °F 58.5 °F 29.77 in SE 10.0 mph 10.0 mph 94% 0.00 in WeatherDisplay:10.37 W/m2 -DZ
12:05 60.3 °F 58.6 °F 29.77 in SE 10.0 mph 10.0 mph 94% 0.01 in WeatherDisplay:10.37 W/m2 -DZ
12:10 60.1 °F 58.4 °F 29.77 in SE 10.0 mph 10.0 mph 94% 0.00 in WeatherDisplay:10.37 W/m2 -DZ
12:15 60.3 °F 58.6 °F 29.77 in SE 13.0 mph 13.0 mph 94% 0.00 in WeatherDisplay:10.37 W/m2 -DZ
12:20 60.4 °F 58.7 °F 29.77 in SE 13.0 mph 13.0 mph 94% 0.00 in WeatherDisplay:10.37 W/m2 -DZ
12:25 60.5 °F 58.8 °F 29.78 in SE 13.0 mph 13.0 mph 94% 0.00 in WeatherDisplay:10.37 W/m2 -DZ
12:30 60.5 °F 58.8 °F 29.78 in SE 13.0 mph 13.0 mph 94% 0.00 in WeatherDisplay:10.37 W/m2 -DZ
12:40 60.5 °F 58.8 °F 29.78 in SE 13.0 mph 13.0 mph 94% 0.00 in WeatherDisplay:10.37 W/m2 -DZ
12:45 60.4 °F 58.7 °F 29.78 in SE 13.0 mph 13.0 mph 94% 0.01 in WeatherDisplay:10.37 W/m2 -DZ
12:50 60.6 °F 58.9 °F 29.78 in SE 13.0 mph 13.0 mph 94% 0.00 in WeatherDisplay:10.37 W/m2 -DZ
12:55 60.6 °F 58.9 °F 29.78 in SE 9.0 mph 13.0 mph 94% 0.00 in WeatherDisplay:10.37 W/m2 -DZ
13:00 60.7 °F 59.0 °F 29.78 in SE 9.0 mph 9.0 mph 94% 0.00 in WeatherDisplay:10.37 W/m2 -DZ
13:05 60.9 °F 59.2 °F 29.78 in SE 9.0 mph 9.0 mph 94% 0.00 in WeatherDisplay:10.37 W/m2 -DZ
13:10 61.0 °F 59.3 °F 29.78 in SE 9.0 mph 9.0 mph 94% 0.00 in WeatherDisplay:10.37 W/m2 -DZ
13:15 61.2 °F 59.4 °F 29.78 in SE 9.0 mph 9.0 mph 94% 0.00 in WeatherDisplay:10.37 W/m2 -DZ
13:20 60.9 °F 59.2 °F 29.78 in SSE 9.0 mph 9.0 mph 94% 0.00 in WeatherDisplay:10.37 W/m2 -DZ
13:25 60.7 °F 59.0 °F 29.78 in SSE 9.0 mph 9.0 mph 94% 0.00 in WeatherDisplay:10.37 W/m2 -DZ
13:30 60.7 °F 59.0 °F 29.79 in SSE 9.0 mph 9.0 mph 94% 0.01 in WeatherDisplay:10.37 W/m2 -DZ
13:35 60.7 °F 59.0 °F 29.79 in SSE 9.0 mph 9.0 mph 94% 0.00 in WeatherDisplay:10.37 W/m2 -DZ
13:45 61.0 °F 59.3 °F 29.79 in SSE 9.0 mph 9.0 mph 94% 0.00 in WeatherDisplay:10.37 W/m2 -DZ
13:55 61.2 °F 59.5 °F 29.79 in SSE 9.0 mph 9.0 mph 94% 0.00 in WeatherDisplay:10.37 W/m2 -DZ
14:00 61.2 °F 59.5 °F 29.79 in SSE 9.0 mph 9.0 mph 94% 0.00 in WeatherDisplay:10.37 W/m2 -DZ
14:10 60.9 °F 58.9 °F 29.79 in SSE 9.0 mph 9.0 mph 93% 0.00 in WeatherDisplay:10.37 W/m2 -DZ
14:15 61.1 °F 59.4 °F 29.79 in SSE 8.0 mph 9.0 mph 94% 0.00 in WeatherDisplay:10.37 W/m2 -DZ
14:20 61.3 °F 59.5 °F 29.79 in SSE 8.0 mph 8.0 mph 94% 0.00 in WeatherDisplay:10.37 W/m2 -DZ
14:25 61.4 °F 59.7 °F 29.79 in SSE 8.0 mph 8.0 mph 94% 0.00 in WeatherDisplay:10.37 W/m2 -DZ
14:30 61.5 °F 59.8 °F 29.79 in SSE 8.0 mph 8.0 mph 94% 0.00 in WeatherDisplay:10.37 W/m2 -DZ
14:35 61.6 °F 59.8 °F 29.80 in SSE 8.0 mph 8.0 mph 94% 0.00 in WeatherDisplay:10.37 W/m2 -DZ
14:40 61.5 °F 59.8 °F 29.80 in SSE 8.0 mph 8.0 mph 94% 0.00 in WeatherDisplay:10.37 W/m2 -DZ
14:45 61.4 °F 59.4 °F 29.80 in SSE 8.0 mph 8.0 mph 93% 0.00 in WeatherDisplay:10.37 W/m2 -DZ
14:50 61.4 °F 59.7 °F 29.80 in SSE 8.0 mph 8.0 mph 94% 0.00 in WeatherDisplay:10.37 W/m2 -DZ
14:55 61.6 °F 59.8 °F 29.80 in SSE 8.0 mph 8.0 mph 94% 0.00 in WeatherDisplay:10.37 W/m2 -DZ
15:00 61.9 °F 60.2 °F 29.80 in SE 8.0 mph 8.0 mph 94% 0.00 in WeatherDisplay:10.37 W/m2 -DZ
15:05 61.9 °F 60.2 °F 29.80 in SE 8.0 mph 8.0 mph 94% 0.00 in WeatherDisplay:10.37 W/m2 -DZ
15:10 62.0 °F 60.3 °F 29.80 in SE 8.0 mph 8.0 mph 94% 0.00 in WeatherDisplay:10.37 W/m2 -DZ
15:20 62.2 °F 60.1 °F 29.80 in SE 8.0 mph 8.0 mph 93% 0.00 in WeatherDisplay:10.37 W/m2 -DZ
15:25 62.2 °F 60.2 °F 29.80 in SSE 9.0 mph 9.0 mph 93% 0.00 in WeatherDisplay:10.37 W/m2 -RA
15:30 62.0 °F 59.9 °F 29.80 in SSE 9.0 mph 9.0 mph 93% 0.00 in WeatherDisplay:10.37 W/m2 -RA
15:40 61.4 °F 59.1 °F 29.80 in SSE 9.0 mph 9.0 mph 92% 0.01 in WeatherDisplay:10.37 W/m2 -RA
15:50 61.4 °F 59.4 °F 29.80 in SE 9.0 mph 9.0 mph 93% 0.00 in WeatherDisplay:10.37 W/m2 OVC
15:55 61.5 °F 59.5 °F 29.80 in SE 9.0 mph 9.0 mph 93% 0.00 in WeatherDisplay:10.37 W/m2 OVC
16:00 61.8 °F 59.8 °F 29.80 in SE 9.0 mph 9.0 mph 93% 0.00 in WeatherDisplay:10.37 W/m2 OVC
16:05 62.0 °F 60.0 °F 29.79 in SE 9.0 mph 9.0 mph 93% 0.00 in WeatherDisplay:10.37 W/m2 OVC
16:10 62.1 °F 60.1 °F 29.80 in SE 9.0 mph 9.0 mph 93% 0.00 in WeatherDisplay:10.37 W/m2 OVC
16:15 62.2 °F 60.2 °F 29.80 in SE 10.0 mph 10.0 mph 93% 0.00 in WeatherDisplay:10.37 W/m2 OVC
16:20 62.1 °F 60.1 °F 29.80 in SE 10.0 mph 10.0 mph 93% 0.00 in WeatherDisplay:10.37 W/m2 OVC
16:25 62.0 °F 60.0 °F 29.80 in SE 10.0 mph 10.0 mph 93% 0.00 in WeatherDisplay:10.37 W/m2 OVC
16:30 62.1 °F 60.0 °F 29.80 in SE 10.0 mph 10.0 mph 93% 0.00 in WeatherDisplay:10.37 W/m2 OVC
16:40 62.0 °F 59.9 °F 29.80 in SE 10.0 mph 10.0 mph 93% 0.00 in WeatherDisplay:10.37 W/m2 OVC
16:45 61.7 °F 59.3 °F 29.81 in SSE 7.0 mph 10.0 mph 92% 0.00 in WeatherDisplay:10.37 W/m2 OVC
16:55 61.1 °F 58.8 °F 29.81 in South 7.0 mph 7.0 mph 92% 0.00 in WeatherDisplay:10.37 W/m2 OVC
17:00 61.0 °F 58.7 °F 29.81 in South 7.0 mph 7.0 mph 92% 0.01 in WeatherDisplay:10.37 W/m2 RA
17:05 61.1 °F 59.1 °F 29.81 in South 7.0 mph 7.0 mph 93% 0.00 in WeatherDisplay:10.37 W/m2 OVC
17:10 61.1 °F 59.1 °F 29.81 in South 7.0 mph 7.0 mph 93% 0.00 in WeatherDisplay:10.37 W/m2 OVC
17:15 61.1 °F 59.0 °F 29.81 in South 6.0 mph 7.0 mph 93% 0.00 in WeatherDisplay:10.37 W/m2 OVC
17:20 61.0 °F 59.0 °F 29.81 in South 6.0 mph 6.0 mph 93% 0.00 in WeatherDisplay:10.37 W/m2 OVC
17:25 60.9 °F 58.9 °F 29.81 in South 6.0 mph 6.0 mph 93% 0.00 in WeatherDisplay:10.37 W/m2 OVC
17:30 60.9 °F 58.9 °F 29.81 in South 6.0 mph 6.0 mph 93% 0.00 in WeatherDisplay:10.37 W/m2 OVC
17:40 61.0 °F 59.0 °F 29.82 in South 6.0 mph 6.0 mph 93% 0.00 in WeatherDisplay:10.37 W/m2 OVC
17:50 61.1 °F 59.1 °F 29.82 in South 7.0 mph 7.0 mph 93% 0.02 in WeatherDisplay:10.37 W/m2 -RA
17:55 61.1 °F 59.0 °F 29.82 in South 7.0 mph 7.0 mph 93% 0.02 in WeatherDisplay:10.37 W/m2 -DZ
18:00 61.1 °F 59.1 °F 29.82 in South 7.0 mph 7.0 mph 93% 0.00 in WeatherDisplay:10.37 W/m2 -DZ
18:05 61.0 °F 59.0 °F 29.82 in South 7.0 mph 7.0 mph 93% 0.00 in WeatherDisplay:10.37 W/m2 -DZ
18:10 61.0 °F 59.0 °F 29.82 in South 7.0 mph 7.0 mph 93% 0.01 in WeatherDisplay:10.37 W/m2 -DZ
18:15 61.1 °F 59.1 °F 29.82 in WSW 7.0 mph 7.0 mph 93% 0.00 in WeatherDisplay:10.37 W/m2 OVC
18:20 61.1 °F 59.1 °F 29.82 in NW 7.0 mph 7.0 mph 93% 0.00 in WeatherDisplay:10.37 W/m2 OVC
18:25 61.2 °F 59.5 °F 29.82 in SSE 7.0 mph 7.0 mph 94% 0.00 in WeatherDisplay:10.37 W/m2 OVC
18:30 61.2 °F 59.5 °F 29.82 in SSE 7.0 mph 7.0 mph 94% 0.00 in WeatherDisplay:10.37 W/m2 OVC
18:40 61.2 °F 59.2 °F 29.83 in SSE 7.0 mph 7.0 mph 93% 0.00 in WeatherDisplay:10.37 W/m2 OVC
18:50 61.3 °F 59.6 °F 29.83 in SSE 7.0 mph 7.0 mph 94% 0.00 in WeatherDisplay:10.37 W/m2 OVC
18:55 61.2 °F 59.1 °F 29.83 in SSE 7.0 mph 7.0 mph 93% 0.00 in WeatherDisplay:10.37 W/m2 OVC
19:00 61.1 °F 59.1 °F 29.83 in SSE 7.0 mph 7.0 mph 93% 0.00 in WeatherDisplay:10.37 W/m2 OVC
19:05 61.1 °F 59.1 °F 29.83 in SSE 7.0 mph 7.0 mph 93% 0.00 in WeatherDisplay:10.37 W/m2 OVC
19:10 61.1 °F 59.0 °F 29.83 in SSE 7.0 mph 7.0 mph 93% 0.00 in WeatherDisplay:10.37 W/m2 OVC
19:15 61.1 °F 59.3 °F 29.83 in SE 8.0 mph 8.0 mph 94% 0.00 in WeatherDisplay:10.37 W/m2 OVC
19:20 61.1 °F 59.3 °F 29.83 in SE 8.0 mph 8.0 mph 94% 0.00 in WeatherDisplay:10.37 W/m2 OVC
19:25 59.7 °F 58.0 °F 29.86 in Calm     94% 0.00 in WeatherDisplay:10.37 W/m2
19:30 61.0 °F 59.3 °F 29.84 in SE 8.0 mph 8.0 mph 94% 0.00 in WeatherDisplay:10.37 W/m2 OVC
19:35 61.0 °F 59.2 °F 29.84 in SE 8.0 mph 8.0 mph 94% 0.00 in WeatherDisplay:10.37 W/m2 OVC
19:40 61.0 °F 59.3 °F 29.84 in SE 8.0 mph 8.0 mph 94% 0.00 in WeatherDisplay:10.37 W/m2 OVC
19:45 61.0 °F 59.2 °F 29.84 in SE 8.0 mph 8.0 mph 94% 0.00 in WeatherDisplay:10.37 W/m2 OVC
19:50 61.0 °F 59.3 °F 29.84 in SE 8.0 mph 8.0 mph 94% 0.00 in WeatherDisplay:10.37 W/m2 OVC
19:55 61.0 °F 59.3 °F 29.85 in SE 8.0 mph 8.0 mph 94% 0.00 in WeatherDisplay:10.37 W/m2 OVC
20:00 61.0 °F 59.2 °F 29.85 in SE 8.0 mph 8.0 mph 94% 0.00 in WeatherDisplay:10.37 W/m2 OVC
20:05 61.0 °F 59.2 °F 29.85 in SE 8.0 mph 8.0 mph 94% 0.00 in WeatherDisplay:10.37 W/m2 OVC
20:10 60.9 °F 59.2 °F 29.85 in SE 8.0 mph 8.0 mph 94% 0.00 in WeatherDisplay:10.37 W/m2 OVC
20:15 61.0 °F 59.2 °F 29.85 in SE 6.0 mph 8.0 mph 94% 0.00 in WeatherDisplay:10.37 W/m2 OVC
20:20 60.9 °F 59.2 °F 29.85 in ESE 6.0 mph 6.0 mph 94% 0.00 in WeatherDisplay:10.37 W/m2 OVC
20:25 60.9 °F 59.2 °F 29.85 in ESE 6.0 mph 6.0 mph 94% 0.00 in WeatherDisplay:10.37 W/m2 OVC
20:30 60.9 °F 59.2 °F 29.85 in ESE 6.0 mph 6.0 mph 94% 0.00 in WeatherDisplay:10.37 W/m2 OVC
20:35 60.9 °F 59.2 °F 29.86 in ESE 6.0 mph 6.0 mph 94% 0.00 in WeatherDisplay:10.37 W/m2 OVC
20:40 60.9 °F 59.2 °F 29.86 in ESE 6.0 mph 6.0 mph 94% 0.00 in WeatherDisplay:10.37 W/m2 OVC
20:45 60.9 °F 59.2 °F 29.86 in ESE 6.0 mph 6.0 mph 94% 0.00 in WeatherDisplay:10.37 W/m2 OVC
20:50 60.8 °F 59.1 °F 29.86 in ESE 6.0 mph 6.0 mph 94% 0.00 in WeatherDisplay:10.37 W/m2 OVC
20:55 60.8 °F 59.1 °F 29.86 in ESE 6.0 mph 6.0 mph 94% 0.00 in WeatherDisplay:10.37 W/m2 OVC
21:00 60.7 °F 59.0 °F 29.86 in ESE 6.0 mph 6.0 mph 94% 0.00 in WeatherDisplay:10.37 W/m2 OVC
21:05 60.7 °F 59.0 °F 29.86 in ESE 6.0 mph 6.0 mph 94% 0.00 in WeatherDisplay:10.37 W/m2 OVC
21:10 60.7 °F 58.9 °F 29.87 in ESE 6.0 mph 6.0 mph 94% 0.00 in WeatherDisplay:10.37 W/m2 OVC
21:15 60.6 °F 58.9 °F 29.87 in ESE 6.0 mph 6.0 mph 94% 0.00 in WeatherDisplay:10.37 W/m2 BKN
21:20 60.6 °F 58.9 °F 29.87 in ESE 6.0 mph 6.0 mph 94% 0.00 in WeatherDisplay:10.37 W/m2 BKN
21:25 60.6 °F 58.9 °F 29.87 in ESE 6.0 mph 6.0 mph 94% 0.00 in WeatherDisplay:10.37 W/m2 BKN
21:30 60.6 °F 58.9 °F 29.87 in ESE 6.0 mph 6.0 mph 94% 0.00 in WeatherDisplay:10.37 W/m2 BKN
21:35 60.6 °F 58.9 °F 29.87 in ESE 6.0 mph 6.0 mph 94% 0.00 in WeatherDisplay:10.37 W/m2 BKN
21:40 60.6 °F 58.9 °F 29.88 in ESE 6.0 mph 6.0 mph 94% 0.00 in WeatherDisplay:10.37 W/m2 BKN
21:45 60.6 °F 58.9 °F 29.88 in ESE 6.0 mph 6.0 mph 94% 0.00 in WeatherDisplay:10.37 W/m2 BKN
21:50 60.6 °F 58.9 °F 29.88 in ESE 6.0 mph 6.0 mph 94% 0.00 in WeatherDisplay:10.37 W/m2 BKN
21:55 60.5 °F 58.8 °F 29.88 in ESE 6.0 mph 6.0 mph 94% 0.00 in WeatherDisplay:10.37 W/m2 BKN
22:00 60.5 °F 58.8 °F 29.88 in ESE 6.0 mph 6.0 mph 94% 0.01 in WeatherDisplay:10.37 W/m2 BKN
22:05 60.5 °F 58.8 °F 29.88 in ESE 6.0 mph 6.0 mph 94% 0.00 in WeatherDisplay:10.37 W/m2 BKN
22:10 60.5 °F 58.8 °F 29.88 in ESE 6.0 mph 6.0 mph 94% 0.00 in WeatherDisplay:10.37 W/m2 BKN
22:15 60.6 °F 58.9 °F 29.88 in East 5.0 mph 6.0 mph 94% 0.00 in WeatherDisplay:10.37 W/m2 OVC
22:20 60.6 °F 58.9 °F 29.88 in East 5.0 mph 5.0 mph 94% 0.00 in WeatherDisplay:10.37 W/m2 OVC
22:25 60.6 °F 58.9 °F 29.88 in East 5.0 mph 5.0 mph 94% 0.00 in WeatherDisplay:10.37 W/m2 OVC
22:30 60.5 °F 58.8 °F 29.88 in East 5.0 mph 5.0 mph 94% 0.00 in WeatherDisplay:10.37 W/m2 OVC
22:40 60.5 °F 58.8 °F 29.88 in East 5.0 mph 5.0 mph 94% 0.00 in WeatherDisplay:10.37 W/m2 OVC
22:45 60.5 °F 58.8 °F 29.88 in East 5.0 mph 5.0 mph 94% 0.00 in WeatherDisplay:10.37 W/m2 OVC
22:50 60.4 °F 58.7 °F 29.88 in East 5.0 mph 5.0 mph 94% 0.00 in WeatherDisplay:10.37 W/m2 OVC
22:55 60.4 °F 58.7 °F 29.88 in East 5.0 mph 5.0 mph 94% 0.00 in WeatherDisplay:10.37 W/m2 OVC
23:00 60.4 °F 58.7 °F 29.88 in East 5.0 mph 5.0 mph 94% 0.00 in WeatherDisplay:10.37 W/m2 OVC
23:10 60.3 °F 58.6 °F 29.88 in East 5.0 mph 5.0 mph 94% 0.00 in WeatherDisplay:10.37 W/m2 OVC
23:20 60.3 °F 58.5 °F 29.88 in East 6.0 mph 6.0 mph 94% 0.00 in WeatherDisplay:10.37 W/m2 BKN
23:35 60.0 °F 58.3 °F 29.88 in East 6.0 mph 6.0 mph 94% 0.00 in WeatherDisplay:10.37 W/m2 SCT
23:40 60.0 °F 58.3 °F 29.87 in East 6.0 mph 6.0 mph 94% 0.00 in WeatherDisplay:10.37 W/m2 SCT
23:45 59.9 °F 58.2 °F 29.87 in East 6.0 mph 6.0 mph 94% 0.00 in WeatherDisplay:10.37 W/m2 SCT
23:50 59.9 °F 58.2 °F 29.87 in East 6.0 mph 6.0 mph 94% 0.00 in WeatherDisplay:10.37 W/m2 SCT
23:55 59.9 °F 58.2 °F 29.87 in East 5.0 mph 6.0 mph 94% 0.00 in WeatherDisplay:10.37 W/m2 BKN
Piedmont Bend
Compliments of Weather Underground - 4 mb